sensor_id;sensor_type;location;lat;lon;timestamp;P1;durP1;ratioP1;P2;durP2;ratioP2
30888;SDS011;51092;50.874;7.024;2022-08-19T00:00:08;18.10;;;16.30;;
30888;SDS011;51092;50.874;7.024;2022-08-19T00:01:11;18.15;;;16.30;;
30888;SDS011;51092;50.874;7.024;2022-08-19T00:02:14;16.83;;;15.00;;
30888;SDS011;51092;50.874;7.024;2022-08-19T00:03:15;18.52;;;16.63;;
30888;SDS011;51092;50.874;7.024;2022-08-19T00:04:19;22.48;;;16.27;;
30888;SDS011;51092;50.874;7.024;2022-08-19T00:05:22;19.48;;;17.48;;
30888;SDS011;51092;50.874;7.024;2022-08-19T00:06:25;20.30;;;18.15;;
30888;SDS011;51092;50.874;7.024;2022-08-19T00:07:27;22.55;;;18.13;;
30888;SDS011;51092;50.874;7.024;2022-08-19T00:08:30;22.23;;;19.05;;
30888;SDS011;51092;50.874;7.024;2022-08-19T00:09:32;19.45;;;17.45;;
30888;SDS011;51092;50.874;7.024;2022-08-19T00:10:35;23.00;;;19.58;;
30888;SDS011;51092;50.874;7.024;2022-08-19T00:11:37;20.92;;;18.73;;
30888;SDS011;51092;50.874;7.024;2022-08-19T00:12:40;19.73;;;17.73;;
30888;SDS011;51092;50.874;7.024;2022-08-19T00:13:42;21.30;;;19.30;;
30888;SDS011;51092;50.874;7.024;2022-08-19T00:14:47;21.73;;;19.63;;
30888;SDS011;51092;50.874;7.024;2022-08-19T00:15:49;19.60;;;17.60;;
30888;SDS011;51092;50.874;7.024;2022-08-19T00:16:52;22.27;;;19.55;;
30888;SDS011;51092;50.874;7.024;2022-08-19T00:17:55;19.58;;;17.58;;
30888;SDS011;51092;50.874;7.024;2022-08-19T00:18:57;19.85;;;17.73;;
30888;SDS011;51092;50.874;7.024;2022-08-19T00:19:59;23.98;;;18.77;;
30888;SDS011;51092;50.874;7.024;2022-08-19T00:21:01;20.27;;;17.30;;
30888;SDS011;51092;50.874;7.024;2022-08-19T00:22:04;19.08;;;17.10;;
30888;SDS011;51092;50.874;7.024;2022-08-19T00:23:07;20.25;;;16.70;;
30888;SDS011;51092;50.874;7.024;2022-08-19T00:24:09;19.42;;;16.83;;
30888;SDS011;51092;50.874;7.024;2022-08-19T00:25:13;20.60;;;15.10;;
30888;SDS011;51092;50.874;7.024;2022-08-19T00:26:15;16.60;;;14.68;;
30888;SDS011;51092;50.874;7.024;2022-08-19T00:27:18;15.45;;;13.95;;
30888;SDS011;51092;50.874;7.024;2022-08-19T00:28:19;15.80;;;14.20;;
30888;SDS011;51092;50.874;7.024;2022-08-19T00:29:22;17.55;;;14.70;;
30888;SDS011;51092;50.874;7.024;2022-08-19T00:30:26;16.42;;;14.82;;
30888;SDS011;51092;50.874;7.024;2022-08-19T00:31:29;20.02;;;14.27;;
30888;SDS011;51092;50.874;7.024;2022-08-19T00:32:31;16.27;;;14.32;;
30888;SDS011;51092;50.874;7.024;2022-08-19T00:33:35;15.45;;;12.88;;
30888;SDS011;51092;50.874;7.024;2022-08-19T00:34:36;14.60;;;13.30;;
30888;SDS011;51092;50.874;7.024;2022-08-19T00:35:39;13.75;;;12.18;;
30888;SDS011;51092;50.874;7.024;2022-08-19T00:36:41;14.13;;;12.15;;
30888;SDS011;51092;50.874;7.024;2022-08-19T00:37:44;17.60;;;13.85;;
30888;SDS011;51092;50.874;7.024;2022-08-19T00:38:45;16.02;;;14.32;;
30888;SDS011;51092;50.874;7.024;2022-08-19T00:39:48;14.55;;;12.20;;
30888;SDS011;51092;50.874;7.024;2022-08-19T00:40:49;18.17;;;13.73;;
30888;SDS011;51092;50.874;7.024;2022-08-19T00:41:52;13.77;;;12.25;;
30888;SDS011;51092;50.874;7.024;2022-08-19T00:42:53;14.88;;;12.75;;
30888;SDS011;51092;50.874;7.024;2022-08-19T00:43:57;14.50;;;12.98;;
30888;SDS011;51092;50.874;7.024;2022-08-19T00:45:00;18.33;;;13.07;;
30888;SDS011;51092;50.874;7.024;2022-08-19T00:46:05;16.58;;;12.65;;
30888;SDS011;51092;50.874;7.024;2022-08-19T00:47:07;16.85;;;12.43;;
30888;SDS011;51092;50.874;7.024;2022-08-19T00:48:09;18.58;;;14.20;;
30888;SDS011;51092;50.874;7.024;2022-08-19T00:49:11;16.55;;;13.75;;
30888;SDS011;51092;50.874;7.024;2022-08-19T00:50:18;20.30;;;13.27;;
30888;SDS011;51092;50.874;7.024;2022-08-19T00:51:22;15.77;;;12.90;;
30888;SDS011;51092;50.874;7.024;2022-08-19T00:52:27;14.60;;;13.20;;
30888;SDS011;51092;50.874;7.024;2022-08-19T00:53:31;17.17;;;13.80;;
30888;SDS011;51092;50.874;7.024;2022-08-19T00:54:35;16.35;;;14.63;;
30888;SDS011;51092;50.874;7.024;2022-08-19T00:55:38;15.75;;;14.15;;
30888;SDS011;51092;50.874;7.024;2022-08-19T00:56:41;17.98;;;14.65;;
30888;SDS011;51092;50.874;7.024;2022-08-19T00:57:46;16.15;;;14.43;;
30888;SDS011;51092;50.874;7.024;2022-08-19T00:58:52;15.52;;;13.57;;
30888;SDS011;51092;50.874;7.024;2022-08-19T00:59:56;15.23;;;13.43;;
30888;SDS011;51092;50.874;7.024;2022-08-19T01:01:03;18.13;;;14.38;;
30888;SDS011;51092;50.874;7.024;2022-08-19T01:02:06;19.88;;;15.35;;
30888;SDS011;51092;50.874;7.024;2022-08-19T01:03:10;15.85;;;14.25;;
30888;SDS011;51092;50.874;7.024;2022-08-19T01:04:13;15.88;;;13.55;;
30888;SDS011;51092;50.874;7.024;2022-08-19T01:05:17;15.73;;;12.65;;
30888;SDS011;51092;50.874;7.024;2022-08-19T01:06:21;13.63;;;12.15;;
30888;SDS011;51092;50.874;7.024;2022-08-19T01:07:24;15.45;;;12.65;;
30888;SDS011;51092;50.874;7.024;2022-08-19T01:08:25;13.90;;;12.50;;
30888;SDS011;51092;50.874;7.024;2022-08-19T01:09:28;15.80;;;14.13;;
30888;SDS011;51092;50.874;7.024;2022-08-19T01:10:32;14.80;;;13.40;;
30888;SDS011;51092;50.874;7.024;2022-08-19T01:11:39;17.25;;;15.48;;
30888;SDS011;51092;50.874;7.024;2022-08-19T01:12:44;16.45;;;14.73;;
30888;SDS011;51092;50.874;7.024;2022-08-19T01:13:48;16.17;;;14.45;;
30888;SDS011;51092;50.874;7.024;2022-08-19T01:14:51;16.75;;;13.93;;
30888;SDS011;51092;50.874;7.024;2022-08-19T01:15:55;16.88;;;13.50;;
30888;SDS011;51092;50.874;7.024;2022-08-19T01:17:01;16.80;;;13.10;;
30888;SDS011;51092;50.874;7.024;2022-08-19T01:18:04;16.08;;;13.55;;
30888;SDS011;51092;50.874;7.024;2022-08-19T01:19:18;17.52;;;15.73;;
30888;SDS011;51092;50.874;7.024;2022-08-19T01:20:26;16.33;;;14.65;;
30888;SDS011;51092;50.874;7.024;2022-08-19T01:21:28;16.95;;;14.45;;
30888;SDS011;51092;50.874;7.024;2022-08-19T01:22:38;21.48;;;15.32;;
30888;SDS011;51092;50.874;7.024;2022-08-19T01:23:43;15.98;;;14.20;;
30888;SDS011;51092;50.874;7.024;2022-08-19T01:24:46;16.33;;;14.63;;
30888;SDS011;51092;50.874;7.024;2022-08-19T01:25:50;19.10;;;15.05;;
30888;SDS011;51092;50.874;7.024;2022-08-19T01:26:54;14.27;;;12.75;;
30888;SDS011;51092;50.874;7.024;2022-08-19T01:27:58;16.38;;;13.38;;
30888;SDS011;51092;50.874;7.024;2022-08-19T01:29:00;16.77;;;14.05;;
30888;SDS011;51092;50.874;7.024;2022-08-19T01:30:02;16.38;;;14.82;;
30888;SDS011;51092;50.874;7.024;2022-08-19T01:31:06;16.17;;;14.63;;
30888;SDS011;51092;50.874;7.024;2022-08-19T01:32:13;18.13;;;14.68;;
30888;SDS011;51092;50.874;7.024;2022-08-19T01:33:17;17.17;;;14.75;;
30888;SDS011;51092;50.874;7.024;2022-08-19T01:34:19;15.73;;;13.80;;
30888;SDS011;51092;50.874;7.024;2022-08-19T01:35:25;15.90;;;14.38;;
30888;SDS011;51092;50.874;7.024;2022-08-19T01:36:30;16.10;;;14.32;;
30888;SDS011;51092;50.874;7.024;2022-08-19T01:37:42;21.67;;;15.32;;
30888;SDS011;51092;50.874;7.024;2022-08-19T01:38:46;20.05;;;16.42;;
30888;SDS011;51092;50.874;7.024;2022-08-19T01:39:49;18.80;;;16.95;;
30888;SDS011;51092;50.874;7.024;2022-08-19T01:40:52;17.17;;;15.13;;
30888;SDS011;51092;50.874;7.024;2022-08-19T01:41:53;20.83;;;16.60;;
30888;SDS011;51092;50.874;7.024;2022-08-19T01:42:56;18.00;;;16.10;;
30888;SDS011;51092;50.874;7.024;2022-08-19T01:43:58;19.35;;;17.42;;
30888;SDS011;51092;50.874;7.024;2022-08-19T01:45:02;18.02;;;15.88;;
30888;SDS011;51092;50.874;7.024;2022-08-19T01:46:03;17.88;;;15.82;;
30888;SDS011;51092;50.874;7.024;2022-08-19T01:47:06;19.75;;;15.35;;
30888;SDS011;51092;50.874;7.024;2022-08-19T01:48:08;18.38;;;14.80;;
30888;SDS011;51092;50.874;7.024;2022-08-19T01:49:10;16.63;;;14.50;;
30888;SDS011;51092;50.874;7.024;2022-08-19T01:50:12;19.05;;;14.60;;
30888;SDS011;51092;50.874;7.024;2022-08-19T01:51:16;16.08;;;14.27;;
30888;SDS011;51092;50.874;7.024;2022-08-19T01:52:17;18.65;;;15.02;;
30888;SDS011;51092;50.874;7.024;2022-08-19T01:53:21;17.10;;;14.02;;
30888;SDS011;51092;50.874;7.024;2022-08-19T01:54:23;18.63;;;14.93;;
30888;SDS011;51092;50.874;7.024;2022-08-19T01:55:26;18.50;;;16.27;;
30888;SDS011;51092;50.874;7.024;2022-08-19T01:56:28;18.55;;;16.33;;
30888;SDS011;51092;50.874;7.024;2022-08-19T01:57:33;16.42;;;14.73;;
30888;SDS011;51092;50.874;7.024;2022-08-19T01:58:36;15.55;;;13.95;;
30888;SDS011;51092;50.874;7.024;2022-08-19T01:59:42;15.48;;;13.70;;
30888;SDS011;51092;50.874;7.024;2022-08-19T02:00:45;16.65;;;14.90;;
30888;SDS011;51092;50.874;7.024;2022-08-19T02:01:50;15.75;;;13.90;;
30888;SDS011;51092;50.874;7.024;2022-08-19T02:02:51;19.92;;;16.38;;
30888;SDS011;51092;50.874;7.024;2022-08-19T02:03:55;21.27;;;18.98;;
30888;SDS011;51092;50.874;7.024;2022-08-19T02:04:56;20.02;;;17.40;;
30888;SDS011;51092;50.874;7.024;2022-08-19T02:06:00;19.88;;;16.58;;
30888;SDS011;51092;50.874;7.024;2022-08-19T02:07:03;19.75;;;17.48;;
30888;SDS011;51092;50.874;7.024;2022-08-19T02:08:06;20.02;;;17.95;;
30888;SDS011;51092;50.874;7.024;2022-08-19T02:09:10;25.10;;;19.05;;
30888;SDS011;51092;50.874;7.024;2022-08-19T02:10:14;19.90;;;18.00;;
30888;SDS011;51092;50.874;7.024;2022-08-19T02:11:18;20.23;;;18.08;;
30888;SDS011;51092;50.874;7.024;2022-08-19T02:12:22;20.45;;;18.40;;
30888;SDS011;51092;50.874;7.024;2022-08-19T02:13:24;19.95;;;17.95;;
30888;SDS011;51092;50.874;7.024;2022-08-19T02:14:27;20.73;;;18.30;;
30888;SDS011;51092;50.874;7.024;2022-08-19T02:15:29;25.05;;;18.35;;
30888;SDS011;51092;50.874;7.024;2022-08-19T02:16:32;21.27;;;19.17;;
30888;SDS011;51092;50.874;7.024;2022-08-19T02:17:35;21.83;;;19.73;;
30888;SDS011;51092;50.874;7.024;2022-08-19T02:18:38;24.35;;;20.95;;
30888;SDS011;51092;50.874;7.024;2022-08-19T02:19:39;23.40;;;20.70;;
30888;SDS011;51092;50.874;7.024;2022-08-19T02:20:42;25.27;;;21.95;;
30888;SDS011;51092;50.874;7.024;2022-08-19T02:21:43;23.20;;;20.63;;
30888;SDS011;51092;50.874;7.024;2022-08-19T02:22:45;25.65;;;22.90;;
30888;SDS011;51092;50.874;7.024;2022-08-19T02:23:47;27.25;;;24.27;;
30888;SDS011;51092;50.874;7.024;2022-08-19T02:24:51;26.58;;;23.77;;
30888;SDS011;51092;50.874;7.024;2022-08-19T02:25:54;27.40;;;24.48;;
30888;SDS011;51092;50.874;7.024;2022-08-19T02:26:57;28.35;;;25.08;;
30888;SDS011;51092;50.874;7.024;2022-08-19T02:27:59;29.20;;;25.15;;
30888;SDS011;51092;50.874;7.024;2022-08-19T02:29:02;28.20;;;25.20;;
30888;SDS011;51092;50.874;7.024;2022-08-19T02:30:04;28.08;;;25.27;;
30888;SDS011;51092;50.874;7.024;2022-08-19T02:31:08;26.58;;;23.80;;
30888;SDS011;51092;50.874;7.024;2022-08-19T02:32:10;28.23;;;25.25;;
30888;SDS011;51092;50.874;7.024;2022-08-19T02:33:14;28.27;;;25.45;;
30888;SDS011;51092;50.874;7.024;2022-08-19T02:34:16;28.05;;;25.05;;
30888;SDS011;51092;50.874;7.024;2022-08-19T02:35:19;28.33;;;25.02;;
30888;SDS011;51092;50.874;7.024;2022-08-19T02:36:21;29.92;;;26.92;;
30888;SDS011;51092;50.874;7.024;2022-08-19T02:37:25;29.10;;;26.10;;
30888;SDS011;51092;50.874;7.024;2022-08-19T02:38:45;29.13;;;26.15;;
30888;SDS011;51092;50.874;7.024;2022-08-19T02:39:46;30.33;;;27.13;;
30888;SDS011;51092;50.874;7.024;2022-08-19T02:40:51;27.63;;;23.98;;
30888;SDS011;51092;50.874;7.024;2022-08-19T02:41:53;28.85;;;25.75;;
30888;SDS011;51092;50.874;7.024;2022-08-19T02:42:56;29.42;;;26.63;;
30888;SDS011;51092;50.874;7.024;2022-08-19T02:43:59;29.80;;;26.88;;
30888;SDS011;51092;50.874;7.024;2022-08-19T02:45:03;29.98;;;25.58;;
30888;SDS011;51092;50.874;7.024;2022-08-19T02:46:11;32.35;;;27.73;;
30888;SDS011;51092;50.874;7.024;2022-08-19T02:47:14;30.25;;;26.02;;
30888;SDS011;51092;50.874;7.024;2022-08-19T02:48:16;30.20;;;26.92;;
30888;SDS011;51092;50.874;7.024;2022-08-19T02:49:19;30.25;;;27.30;;
30888;SDS011;51092;50.874;7.024;2022-08-19T02:50:21;30.73;;;27.63;;
30888;SDS011;51092;50.874;7.024;2022-08-19T02:51:24;30.27;;;26.83;;
30888;SDS011;51092;50.874;7.024;2022-08-19T02:52:27;31.17;;;26.27;;
30888;SDS011;51092;50.874;7.024;2022-08-19T02:53:29;29.15;;;26.13;;
30888;SDS011;51092;50.874;7.024;2022-08-19T02:54:31;29.48;;;26.65;;
30888;SDS011;51092;50.874;7.024;2022-08-19T02:55:33;32.15;;;28.95;;
30888;SDS011;51092;50.874;7.024;2022-08-19T02:56:38;30.52;;;27.30;;
30888;SDS011;51092;50.874;7.024;2022-08-19T02:57:41;30.60;;;27.52;;
30888;SDS011;51092;50.874;7.024;2022-08-19T02:58:44;32.67;;;29.30;;
30888;SDS011;51092;50.874;7.024;2022-08-19T02:59:46;33.63;;;30.13;;
30888;SDS011;51092;50.874;7.024;2022-08-19T03:00:50;30.88;;;27.08;;
30888;SDS011;51092;50.874;7.024;2022-08-19T03:01:53;30.35;;;27.35;;
30888;SDS011;51092;50.874;7.024;2022-08-19T03:02:56;29.50;;;26.40;;
30888;SDS011;51092;50.874;7.024;2022-08-19T03:03:58;34.25;;;30.70;;
30888;SDS011;51092;50.874;7.024;2022-08-19T03:05:02;30.60;;;27.23;;
30888;SDS011;51092;50.874;7.024;2022-08-19T03:06:04;28.52;;;25.63;;
30888;SDS011;51092;50.874;7.024;2022-08-19T03:07:09;30.35;;;27.35;;
30888;SDS011;51092;50.874;7.024;2022-08-19T03:08:14;29.60;;;26.60;;
30888;SDS011;51092;50.874;7.024;2022-08-19T03:09:19;28.33;;;24.83;;
30888;SDS011;51092;50.874;7.024;2022-08-19T03:10:21;33.85;;;30.40;;
30888;SDS011;51092;50.874;7.024;2022-08-19T03:11:25;31.08;;;27.63;;
30888;SDS011;51092;50.874;7.024;2022-08-19T03:12:29;28.95;;;26.02;;
30888;SDS011;51092;50.874;7.024;2022-08-19T03:13:31;30.75;;;27.88;;
30888;SDS011;51092;50.874;7.024;2022-08-19T03:14:32;30.30;;;27.20;;
30888;SDS011;51092;50.874;7.024;2022-08-19T03:15:38;29.25;;;26.25;;
30888;SDS011;51092;50.874;7.024;2022-08-19T03:16:43;28.33;;;25.30;;
30888;SDS011;51092;50.874;7.024;2022-08-19T03:17:46;28.60;;;25.77;;
30888;SDS011;51092;50.874;7.024;2022-08-19T03:18:48;27.00;;;24.35;;
30888;SDS011;51092;50.874;7.024;2022-08-19T03:19:51;27.92;;;24.33;;
30888;SDS011;51092;50.874;7.024;2022-08-19T03:20:53;28.23;;;24.80;;
30888;SDS011;51092;50.874;7.024;2022-08-19T03:21:55;28.02;;;24.92;;
30888;SDS011;51092;50.874;7.024;2022-08-19T03:22:57;28.92;;;26.00;;
30888;SDS011;51092;50.874;7.024;2022-08-19T03:24:00;29.45;;;26.50;;
30888;SDS011;51092;50.874;7.024;2022-08-19T03:25:04;28.63;;;25.83;;
30888;SDS011;51092;50.874;7.024;2022-08-19T03:26:07;30.55;;;27.55;;
30888;SDS011;51092;50.874;7.024;2022-08-19T03:27:08;30.13;;;26.90;;
30888;SDS011;51092;50.874;7.024;2022-08-19T03:28:13;36.97;;;32.53;;
30888;SDS011;51092;50.874;7.024;2022-08-19T03:29:18;30.42;;;27.33;;
30888;SDS011;51092;50.874;7.024;2022-08-19T03:30:21;30.58;;;27.23;;
30888;SDS011;51092;50.874;7.024;2022-08-19T03:31:24;31.92;;;28.40;;
30888;SDS011;51092;50.874;7.024;2022-08-19T03:32:28;29.48;;;26.52;;
30888;SDS011;51092;50.874;7.024;2022-08-19T03:33:30;32.53;;;28.35;;
30888;SDS011;51092;50.874;7.024;2022-08-19T03:34:33;35.88;;;29.55;;
30888;SDS011;51092;50.874;7.024;2022-08-19T03:35:37;33.50;;;30.10;;
30888;SDS011;51092;50.874;7.024;2022-08-19T03:36:39;37.50;;;31.95;;
30888;SDS011;51092;50.874;7.024;2022-08-19T03:37:42;31.83;;;28.48;;
30888;SDS011;51092;50.874;7.024;2022-08-19T03:38:44;35.28;;;30.92;;
30888;SDS011;51092;50.874;7.024;2022-08-19T03:39:49;33.42;;;30.10;;
30888;SDS011;51092;50.874;7.024;2022-08-19T03:40:50;30.70;;;27.50;;
30888;SDS011;51092;50.874;7.024;2022-08-19T03:41:53;32.35;;;29.02;;
30888;SDS011;51092;50.874;7.024;2022-08-19T03:42:57;30.70;;;27.67;;
30888;SDS011;51092;50.874;7.024;2022-08-19T03:44:02;30.13;;;27.15;;
30888;SDS011;51092;50.874;7.024;2022-08-19T03:45:06;31.88;;;27.73;;
30888;SDS011;51092;50.874;7.024;2022-08-19T03:46:10;31.55;;;28.40;;
30888;SDS011;51092;50.874;7.024;2022-08-19T03:47:12;30.63;;;27.42;;
30888;SDS011;51092;50.874;7.024;2022-08-19T03:48:17;35.63;;;31.90;;
30888;SDS011;51092;50.874;7.024;2022-08-19T03:49:19;31.77;;;28.55;;
30888;SDS011;51092;50.874;7.024;2022-08-19T03:50:22;29.35;;;26.25;;
30888;SDS011;51092;50.874;7.024;2022-08-19T03:51:27;30.10;;;27.02;;
30888;SDS011;51092;50.874;7.024;2022-08-19T03:52:31;30.10;;;27.23;;
30888;SDS011;51092;50.874;7.024;2022-08-19T03:53:34;30.33;;;27.13;;
30888;SDS011;51092;50.874;7.024;2022-08-19T03:54:36;29.92;;;26.92;;
30888;SDS011;51092;50.874;7.024;2022-08-19T03:55:40;29.83;;;27.02;;
30888;SDS011;51092;50.874;7.024;2022-08-19T03:56:42;32.53;;;29.13;;
30888;SDS011;51092;50.874;7.024;2022-08-19T03:57:46;29.55;;;26.60;;
30888;SDS011;51092;50.874;7.024;2022-08-19T03:58:49;30.33;;;27.10;;
30888;SDS011;51092;50.874;7.024;2022-08-19T03:59:53;31.25;;;27.85;;
30888;SDS011;51092;50.874;7.024;2022-08-19T04:00:55;30.90;;;26.90;;
30888;SDS011;51092;50.874;7.024;2022-08-19T04:01:58;32.08;;;27.52;;
30888;SDS011;51092;50.874;7.024;2022-08-19T04:03:03;32.15;;;28.83;;
30888;SDS011;51092;50.874;7.024;2022-08-19T04:04:04;31.02;;;27.75;;
30888;SDS011;51092;50.874;7.024;2022-08-19T04:05:07;32.75;;;29.35;;
30888;SDS011;51092;50.874;7.024;2022-08-19T04:06:11;31.70;;;28.55;;
30888;SDS011;51092;50.874;7.024;2022-08-19T04:07:15;31.33;;;28.02;;
30888;SDS011;51092;50.874;7.024;2022-08-19T04:08:20;33.00;;;29.85;;
30888;SDS011;51092;50.874;7.024;2022-08-19T04:09:23;32.55;;;29.30;;
30888;SDS011;51092;50.874;7.024;2022-08-19T04:10:25;33.13;;;29.75;;
30888;SDS011;51092;50.874;7.024;2022-08-19T04:11:29;31.77;;;28.55;;
30888;SDS011;51092;50.874;7.024;2022-08-19T04:12:32;32.33;;;28.92;;
30888;SDS011;51092;50.874;7.024;2022-08-19T04:13:34;34.40;;;30.67;;
30888;SDS011;51092;50.874;7.024;2022-08-19T04:14:39;34.97;;;31.23;;
30888;SDS011;51092;50.874;7.024;2022-08-19T04:15:44;34.13;;;30.83;;
30888;SDS011;51092;50.874;7.024;2022-08-19T04:16:51;33.10;;;29.85;;
30888;SDS011;51092;50.874;7.024;2022-08-19T04:17:55;36.30;;;29.95;;
30888;SDS011;51092;50.874;7.024;2022-08-19T04:19:02;32.50;;;29.20;;
30888;SDS011;51092;50.874;7.024;2022-08-19T04:20:09;32.50;;;29.13;;
30888;SDS011;51092;50.874;7.024;2022-08-19T04:21:15;30.70;;;27.75;;
30888;SDS011;51092;50.874;7.024;2022-08-19T04:22:17;33.58;;;29.95;;
30888;SDS011;51092;50.874;7.024;2022-08-19T04:23:20;32.38;;;29.25;;
30888;SDS011;51092;50.874;7.024;2022-08-19T04:24:24;32.80;;;29.23;;
30888;SDS011;51092;50.874;7.024;2022-08-19T04:25:27;31.95;;;28.55;;
30888;SDS011;51092;50.874;7.024;2022-08-19T04:26:30;30.20;;;27.10;;
30888;SDS011;51092;50.874;7.024;2022-08-19T04:27:36;30.17;;;27.25;;
30888;SDS011;51092;50.874;7.024;2022-08-19T04:28:38;29.75;;;26.77;;
30888;SDS011;51092;50.874;7.024;2022-08-19T04:29:41;30.80;;;27.73;;
30888;SDS011;51092;50.874;7.024;2022-08-19T04:30:57;29.60;;;26.60;;
30888;SDS011;51092;50.874;7.024;2022-08-19T04:31:59;30.50;;;27.27;;
30888;SDS011;51092;50.874;7.024;2022-08-19T04:33:02;35.67;;;32.13;;
30888;SDS011;51092;50.874;7.024;2022-08-19T04:34:07;32.50;;;28.90;;
30888;SDS011;51092;50.874;7.024;2022-08-19T04:35:12;31.60;;;28.35;;
30888;SDS011;51092;50.874;7.024;2022-08-19T04:36:16;36.50;;;32.75;;
30888;SDS011;51092;50.874;7.024;2022-08-19T04:37:21;35.38;;;31.85;;
30888;SDS011;51092;50.874;7.024;2022-08-19T04:38:23;32.95;;;29.35;;
30888;SDS011;51092;50.874;7.024;2022-08-19T04:39:27;33.25;;;29.73;;
30888;SDS011;51092;50.874;7.024;2022-08-19T04:40:48;32.63;;;29.23;;
30888;SDS011;51092;50.874;7.024;2022-08-19T04:42:10;32.10;;;28.55;;
30888;SDS011;51092;50.874;7.024;2022-08-19T04:43:30;30.88;;;27.85;;
30888;SDS011;51092;50.874;7.024;2022-08-19T04:44:34;32.58;;;29.27;;
30888;SDS011;51092;50.874;7.024;2022-08-19T04:45:36;33.33;;;29.88;;
30888;SDS011;51092;50.874;7.024;2022-08-19T04:46:40;32.53;;;29.13;;
30888;SDS011;51092;50.874;7.024;2022-08-19T04:47:42;34.28;;;31.13;;
30888;SDS011;51092;50.874;7.024;2022-08-19T04:48:45;33.70;;;30.25;;
30888;SDS011;51092;50.874;7.024;2022-08-19T04:49:47;33.05;;;29.52;;
30888;SDS011;51092;50.874;7.024;2022-08-19T04:50:50;36.42;;;31.92;;
30888;SDS011;51092;50.874;7.024;2022-08-19T04:51:54;35.40;;;29.95;;
30888;SDS011;51092;50.874;7.024;2022-08-19T04:52:57;31.52;;;28.52;;
30888;SDS011;51092;50.874;7.024;2022-08-19T04:53:58;34.25;;;30.88;;
30888;SDS011;51092;50.874;7.024;2022-08-19T04:55:02;32.47;;;29.27;;
30888;SDS011;51092;50.874;7.024;2022-08-19T04:56:07;32.95;;;29.65;;
30888;SDS011;51092;50.874;7.024;2022-08-19T04:57:11;32.35;;;29.05;;
30888;SDS011;51092;50.874;7.024;2022-08-19T04:58:13;31.23;;;28.15;;
30888;SDS011;51092;50.874;7.024;2022-08-19T04:59:17;33.38;;;29.88;;
30888;SDS011;51092;50.874;7.024;2022-08-19T05:00:20;33.38;;;27.65;;
30888;SDS011;51092;50.874;7.024;2022-08-19T05:01:24;31.77;;;28.38;;
30888;SDS011;51092;50.874;7.024;2022-08-19T05:02:30;33.33;;;29.83;;
30888;SDS011;51092;50.874;7.024;2022-08-19T05:03:32;29.88;;;26.73;;
30888;SDS011;51092;50.874;7.024;2022-08-19T05:04:34;33.63;;;30.23;;
30888;SDS011;51092;50.874;7.024;2022-08-19T05:05:40;32.03;;;28.52;;
30888;SDS011;51092;50.874;7.024;2022-08-19T05:06:42;31.05;;;27.73;;
30888;SDS011;51092;50.874;7.024;2022-08-19T05:07:44;33.13;;;29.77;;
30888;SDS011;51092;50.874;7.024;2022-08-19T05:08:46;33.85;;;28.23;;
30888;SDS011;51092;50.874;7.024;2022-08-19T05:09:49;30.42;;;27.00;;
30888;SDS011;51092;50.874;7.024;2022-08-19T05:10:51;28.23;;;25.10;;
30888;SDS011;51092;50.874;7.024;2022-08-19T05:11:53;29.13;;;25.38;;
30888;SDS011;51092;50.874;7.024;2022-08-19T05:12:57;36.20;;;28.48;;
30888;SDS011;51092;50.874;7.024;2022-08-19T05:14:00;28.13;;;25.17;;
30888;SDS011;51092;50.874;7.024;2022-08-19T05:15:02;34.78;;;29.17;;
30888;SDS011;51092;50.874;7.024;2022-08-19T05:16:06;36.40;;;32.58;;
30888;SDS011;51092;50.874;7.024;2022-08-19T05:17:08;39.72;;;33.75;;
30888;SDS011;51092;50.874;7.024;2022-08-19T05:18:12;44.75;;;33.78;;
30888;SDS011;51092;50.874;7.024;2022-08-19T05:19:32;33.72;;;29.52;;
30888;SDS011;51092;50.874;7.024;2022-08-19T05:20:51;39.92;;;34.50;;
30888;SDS011;51092;50.874;7.024;2022-08-19T05:22:11;40.40;;;36.20;;
30888;SDS011;51092;50.874;7.024;2022-08-19T05:23:31;40.72;;;36.22;;
30888;SDS011;51092;50.874;7.024;2022-08-19T05:24:34;40.35;;;35.53;;
30888;SDS011;51092;50.874;7.024;2022-08-19T05:25:38;39.67;;;35.45;;
30888;SDS011;51092;50.874;7.024;2022-08-19T05:26:42;39.42;;;35.13;;
30888;SDS011;51092;50.874;7.024;2022-08-19T05:27:47;40.92;;;35.50;;
30888;SDS011;51092;50.874;7.024;2022-08-19T05:28:49;39.92;;;35.83;;
30888;SDS011;51092;50.874;7.024;2022-08-19T05:29:51;44.80;;;40.05;;
30888;SDS011;51092;50.874;7.024;2022-08-19T05:30:53;43.78;;;35.13;;
30888;SDS011;51092;50.874;7.024;2022-08-19T05:31:56;41.42;;;35.00;;
30888;SDS011;51092;50.874;7.024;2022-08-19T05:32:59;38.10;;;34.00;;
30888;SDS011;51092;50.874;7.024;2022-08-19T05:34:05;41.80;;;37.22;;
30888;SDS011;51092;50.874;7.024;2022-08-19T05:35:07;44.95;;;38.30;;
30888;SDS011;51092;50.874;7.024;2022-08-19T05:36:10;53.17;;;40.42;;
30888;SDS011;51092;50.874;7.024;2022-08-19T05:37:12;42.85;;;38.13;;
30888;SDS011;51092;50.874;7.024;2022-08-19T05:38:15;41.08;;;36.70;;
30888;SDS011;51092;50.874;7.024;2022-08-19T05:39:18;42.83;;;38.10;;
30888;SDS011;51092;50.874;7.024;2022-08-19T05:40:22;48.00;;;37.53;;
30888;SDS011;51092;50.874;7.024;2022-08-19T05:41:23;44.08;;;37.10;;
30888;SDS011;51092;50.874;7.024;2022-08-19T05:42:30;41.28;;;36.88;;
30888;SDS011;51092;50.874;7.024;2022-08-19T05:43:33;44.00;;;38.80;;
30888;SDS011;51092;50.874;7.024;2022-08-19T05:44:35;51.05;;;42.80;;
30888;SDS011;51092;50.874;7.024;2022-08-19T05:45:40;49.08;;;43.92;;
30888;SDS011;51092;50.874;7.024;2022-08-19T05:46:44;50.30;;;43.20;;
30888;SDS011;51092;50.874;7.024;2022-08-19T05:47:47;52.28;;;46.97;;
30888;SDS011;51092;50.874;7.024;2022-08-19T05:48:51;52.47;;;45.03;;
30888;SDS011;51092;50.874;7.024;2022-08-19T05:49:55;52.33;;;45.92;;
30888;SDS011;51092;50.874;7.024;2022-08-19T05:50:56;58.35;;;52.15;;
30888;SDS011;51092;50.874;7.024;2022-08-19T05:52:01;60.20;;;52.95;;
30888;SDS011;51092;50.874;7.024;2022-08-19T05:53:05;55.95;;;49.80;;
30888;SDS011;51092;50.874;7.024;2022-08-19T05:54:08;58.70;;;52.30;;
30888;SDS011;51092;50.874;7.024;2022-08-19T05:55:11;58.80;;;52.55;;
30888;SDS011;51092;50.874;7.024;2022-08-19T05:56:16;57.63;;;51.42;;
30888;SDS011;51092;50.874;7.024;2022-08-19T05:57:18;60.85;;;54.55;;
30888;SDS011;51092;50.874;7.024;2022-08-19T05:58:21;57.45;;;51.22;;
30888;SDS011;51092;50.874;7.024;2022-08-19T05:59:25;59.60;;;52.70;;
30888;SDS011;51092;50.874;7.024;2022-08-19T06:00:29;58.60;;;51.63;;
30888;SDS011;51092;50.874;7.024;2022-08-19T06:01:31;54.58;;;48.72;;
30888;SDS011;51092;50.874;7.024;2022-08-19T06:02:34;57.33;;;51.13;;
30888;SDS011;51092;50.874;7.024;2022-08-19T06:03:37;60.47;;;54.00;;
30888;SDS011;51092;50.874;7.024;2022-08-19T06:04:39;63.22;;;55.67;;
30888;SDS011;51092;50.874;7.024;2022-08-19T06:05:44;54.08;;;47.88;;
30888;SDS011;51092;50.874;7.024;2022-08-19T06:06:46;58.72;;;48.50;;
30888;SDS011;51092;50.874;7.024;2022-08-19T06:07:49;58.25;;;51.47;;
30888;SDS011;51092;50.874;7.024;2022-08-19T06:08:51;57.90;;;50.45;;
30888;SDS011;51092;50.874;7.024;2022-08-19T06:09:53;58.72;;;52.58;;
30888;SDS011;51092;50.874;7.024;2022-08-19T06:10:55;59.97;;;47.80;;
30888;SDS011;51092;50.874;7.024;2022-08-19T06:11:58;58.60;;;50.72;;